Sevastopol', Ukraine
Current Conditions -  °F | °C
As of 12:00 AM on Tuesday 25 Nov 2014 (Local Time) from URFF Reporting Station
Overcast Overcast  
Wind Chill: 18°   Ceiling: 900
Heat Index: 32°   Visibility: 6mi
Dew Point: 28°   Wind: 27mph
Humidity: 87%   Direction: 70°ENE
Pressure: 30.3"   Gusts: NA
Location:  44.6°N, 33.53°E
Report Text: URFF 242100Z 07012MPS 9999 OVC009 M00/M02 Q1026 01010065 TEMPOOVC002
Loading
Personal Weather Stations






























Interactive Weather Map New forecast layout! Learn more

10-Day Weather Forecast

Advertisements
Track Severe Weather on mobile